Time;durP1;ratioP1;P1;durP2;ratioP2;P2;SDS_P1;SDS_P2;PMS_P1;PMS_P2;Temp;Humidity;BMP_temperature;BMP_pressure;BME280_temperature;BME280_humidity;BME280_pressure;Samples;Min_cycle;Max_cycle;Signal;HPM_P1;HPM_P2
2021/08/01 00:00:47;;;;;;;3.42;2.78;;;;;;;20.29;71.86;100037.25;4976547;28;20019;-96
2021/08/01 00:03:13;;;;;;;3.35;2.75;;;;;;;20.33;71.04;100038.53;4975373;28;20047;-96
2021/08/01 00:05:38;;;;;;;2.67;2.47;;;;;;;20.47;70.26;100040.44;4973332;29;20050;-96
2021/08/01 00:08:04;;;;;;;4.22;3.05;;;;;;;20.53;70.22;100039.72;4973314;29;20066;-96
2021/08/01 00:10:30;;;;;;;5.40;2.45;;;;;;;20.52;69.86;100040.75;4967914;28;20050;-96
2021/08/01 00:12:57;;;;;;;4.45;3.10;;;;;;;20.51;69.65;100039.06;4973834;28;20051;-96
2021/08/01 00:15:23;;;;;;;4.53;3.13;;;;;;;20.50;70.05;100023.28;4976890;28;20054;-96
2021/08/01 00:17:48;;;;;;;3.33;2.55;;;;;;;20.56;69.35;100018.03;4974571;28;20470;-96
2021/08/01 00:20:15;;;;;;;3.28;2.63;;;;;;;20.58;69.63;100016.03;4978171;28;20008;-95
2021/08/01 00:22:47;;;;;;;4.88;2.80;;;;;;;20.54;69.23;100020.06;4977164;29;20039;-96
2021/08/01 00:25:14;;;;;;;3.83;2.80;;;;;;;20.51;68.74;100014.25;4963180;29;20039;-96
2021/08/01 00:27:41;;;;;;;4.78;3.03;;;;;;;20.52;68.89;100011.41;4961491;29;20015;-96
2021/08/01 00:30:09;;;;;;;6.07;2.78;;;;;;;20.59;68.36;100015.03;4975459;29;20031;-96
2021/08/01 00:32:37;;;;;;;5.72;3.08;;;;;;;20.41;69.49;100014.50;4971753;29;20032;-96
2021/08/01 00:35:03;;;;;;;4.88;3.00;;;;;;;20.47;68.90;100018.28;4973968;28;20058;-96
2021/08/01 00:37:30;;;;;;;3.10;2.40;;;;;;;20.38;68.78;100013.00;4971939;28;20086;-96
2021/08/01 00:40:00;;;;;;;6.00;2.88;;;;;;;20.41;69.39;100009.16;4973555;28;20043;-96
2021/08/01 00:42:27;;;;;;;7.47;3.15;;;;;;;20.41;69.67;100003.81;4967067;29;20039;-96
2021/08/01 00:44:52;;;;;;;6.05;3.10;;;;;;;20.44;69.65;100014.16;4966740;28;20042;-96
2021/08/01 00:47:18;;;;;;;5.45;2.75;;;;;;;20.36;69.78;100008.88;4963779;28;20393;-96
2021/08/01 00:49:44;;;;;;;5.10;2.90;;;;;;;20.30;69.71;100001.56;4963749;29;20024;-96
2021/08/01 00:52:10;;;;;;;5.20;3.08;;;;;;;20.38;69.51;100012.19;4960308;29;20054;-96
2021/08/01 00:54:36;;;;;;;3.40;2.63;;;;;;;20.36;69.56;100012.38;4959549;28;20030;-96
2021/08/01 00:57:02;;;;;;;7.90;3.20;;;;;;;20.28;69.67;100004.44;4960467;28;20488;-95
2021/08/01 00:59:32;;;;;;;4.68;2.70;;;;;;;20.42;70.07;100021.50;4957284;28;20035;-95
2021/08/01 01:02:03;;;;;;;4.03;2.67;;;;;;;20.36;70.18;100020.38;4957772;28;20034;-96
2021/08/01 01:04:58;;;;;;;4.72;3.40;;;;;;;20.42;70.11;100013.50;4961883;28;20051;-95
2021/08/01 01:07:43;;;;;;;6.43;2.92;;;;;;;20.41;70.28;100001.16;4957979;28;20182;-96
2021/08/01 01:10:14;;;;;;;4.40;2.75;;;;;;;20.37;69.56;100002.53;4958249;29;20035;-96
2021/08/01 01:12:44;;;;;;;4.63;2.83;;;;;;;20.23;70.37;100000.63;4958809;29;20023;-96
2021/08/01 01:15:16;;;;;;;5.03;3.17;;;;;;;20.22;70.27;100010.44;4957926;29;20114;-96
2021/08/01 01:17:46;;;;;;;5.00;3.33;;;;;;;20.23;70.42;100006.78;4959195;29;20031;-95
2021/08/01 01:20:30;;;;;;;5.03;2.95;;;;;;;20.22;69.85;99994.44;4959396;28;20042;-95
2021/08/01 01:23:31;;;;;;;4.68;3.10;;;;;;;20.10;70.05;99987.88;4956329;28;20027;-96
2021/08/01 01:26:00;;;;;;;5.18;3.05;;;;;;;20.05;69.75;99976.94;4957024;28;20059;-96
2021/08/01 01:28:35;;;;;;;6.47;3.17;;;;;;;20.03;70.42;99984.28;4955631;28;20383;-96
2021/08/01 01:31:16;;;;;;;9.25;3.50;;;;;;;20.08;70.54;99981.88;4957732;28;20023;-96
2021/08/01 01:33:52;;;;;;;6.57;3.30;;;;;;;20.05;69.63;99977.75;4956560;28;20382;-96
2021/08/01 01:36:26;;;;;;;7.20;3.55;;;;;;;19.98;69.66;99961.66;4958208;28;20094;-95
2021/08/01 01:38:55;;;;;;;5.18;3.08;;;;;;;19.93;69.38;99963.19;4956678;28;20047;-96
2021/08/01 01:41:22;;;;;;;5.07;3.53;;;;;;;19.81;69.12;99968.06;4956531;28;20037;-95
2021/08/01 01:43:52;;;;;;;9.02;3.45;;;;;;;19.71;69.16;99968.28;4960609;29;20024;-96
2021/08/01 01:46:18;;;;;;;7.47;3.72;;;;;;;19.76;69.85;99986.41;4969146;28;20374;-96
2021/08/01 01:48:45;;;;;;;6.07;3.97;;;;;;;19.77;69.97;99985.41;4966707;29;20034;-95
2021/08/01 01:51:12;;;;;;;7.30;4.07;;;;;;;19.59;70.05;99975.81;4964808;29;20032;-94
2021/08/01 01:53:39;;;;;;;9.98;4.05;;;;;;;19.59;70.58;99982.97;4961658;29;20454;-96
2021/08/01 01:56:07;;;;;;;7.15;4.13;;;;;;;19.63;70.77;99978.94;4959303;28;20086;-95
2021/08/01 01:58:34;;;;;;;7.90;3.88;;;;;;;19.58;70.37;99986.63;4958567;28;20612;-95
2021/08/01 02:01:00;;;;;;;6.70;4.00;;;;;;;19.51;71.10;99969.66;4958844;29;20035;-95
2021/08/01 02:03:25;;;;;;;7.95;4.47;;;;;;;19.42;71.12;99967.03;4958429;28;20032;-95
2021/08/01 02:05:51;;;;;;;7.30;4.00;;;;;;;19.43;71.12;99983.84;4963107;29;20027;-95
2021/08/01 02:08:17;;;;;;;5.70;4.18;;;;;;;19.37;71.11;99965.88;4966982;29;20024;-96
2021/08/01 02:10:55;;;;;;;6.10;3.50;;;;;;;19.37;70.41;99963.22;4968608;28;20031;-95
2021/08/01 02:13:30;;;;;;;13.43;5.85;;;;;;;19.38;70.83;99965.72;4949398;29;20564;-95
2021/08/01 02:15:59;;;;;;;7.07;4.85;;;;;;;19.18;71.97;99973.28;4967424;29;20027;-95
2021/08/01 02:18:36;;;;;;;8.00;5.20;;;;;;;19.22;72.06;99969.28;4974213;28;20039;-96
2021/08/01 02:21:03;;;;;;;16.95;5.88;;;;;;;19.02;72.89;99966.19;4974775;28;20011;-96
2021/08/01 02:23:42;;;;;;;8.25;5.13;;;;;;;19.25;73.02;99973.41;4962856;28;20035;-96
2021/08/01 02:26:11;;;;;;;12.05;5.10;;;;;;;19.26;73.14;99972.44;4963990;28;20035;-96
2021/08/01 02:28:38;;;;;;;10.73;5.93;;;;;;;19.27;72.75;99968.75;4967255;28;20042;-96
2021/08/01 02:31:04;;;;;;;10.32;5.05;;;;;;;19.36;72.54;99977.56;4965068;28;20031;-96
2021/08/01 02:33:29;;;;;;;5.35;4.80;;;;;;;19.37;72.14;99969.41;4958879;28;20023;-94
2021/08/01 02:36:02;;;;;;;7.32;5.10;;;;;;;19.49;72.67;99977.84;4955008;28;20027;-94
2021/08/01 02:38:29;;;;;;;10.55;5.15;;;;;;;19.44;72.56;99980.19;4954661;28;20027;-95
2021/08/01 02:40:58;;;;;;;10.45;5.32;;;;;;;19.44;72.80;99974.03;4953969;28;20032;-96
2021/08/01 02:43:27;;;;;;;6.55;4.72;;;;;;;19.46;72.81;99966.72;4953884;28;20075;-95
2021/08/01 02:45:54;;;;;;;6.38;4.70;;;;;;;19.50;72.27;99968.84;4955820;29;20027;-95
2021/08/01 02:48:22;;;;;;;8.05;5.40;;;;;;;19.54;71.93;99966.66;4954392;29;20046;-96
2021/08/01 02:50:56;;;;;;;8.60;4.65;;;;;;;19.52;71.93;99961.50;4954063;28;20027;-94
2021/08/01 02:53:23;;;;;;;6.90;5.30;;;;;;;19.47;72.37;99960.38;4955079;28;20043;-95
2021/08/01 02:55:52;;;;;;;7.97;5.00;;;;;;;19.49;72.08;99961.88;4956237;28;20436;-95
2021/08/01 02:58:18;;;;;;;10.38;5.40;;;;;;;19.39;71.64;99954.09;4956135;28;20023;-95
2021/08/01 03:00:47;;;;;;;6.68;5.13;;;;;;;19.40;71.67;99957.56;4956035;28;20030;-96
2021/08/01 03:03:15;;;;;;;6.50;4.50;;;;;;;19.36;71.37;99965.06;4955829;28;20042;-95
2021/08/01 03:05:43;;;;;;;5.07;4.43;;;;;;;19.34;71.01;99967.06;4957479;28;20027;-96
2021/08/01 03:08:12;;;;;;;5.95;4.20;;;;;;;19.32;71.07;99968.25;4953831;28;20034;-96
2021/08/01 03:10:51;;;;;;;4.63;4.22;;;;;;;19.28;70.83;99967.75;4954724;28;20031;-95
2021/08/01 03:13:18;;;;;;;7.65;4.68;;;;;;;19.25;70.58;99964.59;4957969;28;20085;-96
2021/08/01 03:15:43;;;;;;;5.72;3.95;;;;;;;19.18;70.31;99965.31;4958587;28;20038;-96
2021/08/01 03:18:09;;;;;;;5.50;4.00;;;;;;;19.13;70.42;99964.16;4959429;28;20026;-95
2021/08/01 03:20:35;;;;;;;7.65;4.22;;;;;;;19.08;70.26;99977.16;4956823;28;20477;-95
2021/08/01 03:23:00;;;;;;;5.55;4.03;;;;;;;19.03;70.07;99967.81;4956843;28;20034;-96
2021/08/01 03:25:26;;;;;;;6.35;4.80;;;;;;;18.97;70.32;99971.16;4956941;28;20090;-95
2021/08/01 03:27:51;;;;;;;6.75;3.90;;;;;;;18.96;70.16;99974.84;4957256;28;20553;-96
2021/08/01 03:30:17;;;;;;;5.75;4.57;;;;;;;18.97;69.60;99967.69;4957258;28;20036;-96
2021/08/01 03:32:42;;;;;;;6.70;4.25;;;;;;;18.88;69.91;99974.84;4957808;28;20106;-95
2021/08/01 03:35:08;;;;;;;8.18;5.18;;;;;;;18.87;70.21;99967.84;4958373;28;20474;-96
2021/08/01 03:37:33;;;;;;;7.40;4.28;;;;;;;18.83;70.26;99966.53;4957428;28;20019;-96
2021/08/01 03:39:58;;;;;;;6.82;4.57;;;;;;;18.75;70.43;99966.53;4956939;28;20541;-96
2021/08/01 03:42:24;;;;;;;7.18;4.50;;;;;;;18.73;70.82;99966.69;4958590;28;20023;-94
2021/08/01 03:44:49;;;;;;;7.82;3.95;;;;;;;18.74;70.45;99970.16;4961101;28;20031;-95
2021/08/01 03:47:15;;;;;;;6.97;4.68;;;;;;;18.73;70.68;99966.69;4960813;28;20019;-96
2021/08/01 03:49:44;;;;;;;6.30;4.68;;;;;;;18.78;70.64;99974.19;4957896;28;20173;-96
2021/08/01 03:52:12;;;;;;;6.03;4.82;;;;;;;18.81;70.73;99976.50;4958632;28;20019;-95
2021/08/01 03:54:38;;;;;;;9.02;5.65;;;;;;;18.67;71.00;99978.00;4960846;28;20243;-96
2021/08/01 03:57:04;;;;;;;8.77;5.30;;;;;;;18.67;71.36;99983.31;4962043;28;20079;-95
2021/08/01 03:59:36;;;;;;;12.35;5.90;;;;;;;18.71;70.99;99968.69;4964057;29;20074;-96
2021/08/01 04:02:03;;;;;;;7.38;5.57;;;;;;;18.70;71.61;99975.00;4961660;28;20469;-96
2021/08/01 04:04:28;;;;;;;6.30;5.18;;;;;;;18.75;71.96;99977.16;4964272;28;20054;-94
2021/08/01 04:06:54;;;;;;;11.13;5.63;;;;;;;18.79;72.11;99970.50;4959901;29;20023;-95
2021/08/01 04:09:19;;;;;;;9.80;5.70;;;;;;;18.83;72.01;99972.69;4956886;28;20027;-95
2021/08/01 04:11:44;;;;;;;7.22;5.05;;;;;;;18.96;71.83;99982.81;4956339;28;20110;-96
2021/08/01 04:14:11;;;;;;;7.63;5.32;;;;;;;18.93;71.90;99975.16;4955890;28;20027;-96
2021/08/01 04:16:37;;;;;;;6.75;5.15;;;;;;;18.92;71.93;99978.84;4956193;29;20039;-95
2021/08/01 04:19:10;;;;;;;6.22;4.85;;;;;;;19.02;71.79;99976.00;4962322;28;20549;-95
2021/08/01 04:21:38;;;;;;;9.65;5.32;;;;;;;19.06;72.01;99981.81;4961525;28;20029;-96
2021/08/01 04:24:03;;;;;;;8.75;5.28;;;;;;;19.02;72.05;99983.97;4958270;28;20035;-95
2021/08/01 04:26:29;;;;;;;7.90;5.00;;;;;;;19.06;72.27;99981.81;4956463;28;20506;-95
2021/08/01 04:28:54;;;;;;;7.20;5.00;;;;;;;19.01;72.13;99974.31;4957326;28;20030;-95
2021/08/01 04:31:20;;;;;;;7.05;5.63;;;;;;;19.10;72.23;99977.81;4957311;28;20470;-96
2021/08/01 04:33:45;;;;;;;7.47;5.30;;;;;;;19.14;72.37;99987.09;4956912;28;20137;-96
2021/08/01 04:36:10;;;;;;;7.97;4.80;;;;;;;19.15;72.46;99976.28;4957265;28;20032;-96
2021/08/01 04:38:36;;;;;;;6.97;4.88;;;;;;;19.24;72.05;99978.94;4956701;29;20102;-96
2021/08/01 04:41:02;;;;;;;6.63;5.15;;;;;;;19.22;72.35;99981.75;4958168;28;20130;-96
2021/08/01 04:43:27;;;;;;;6.57;4.72;;;;;;;19.19;72.12;99974.97;4960520;28;20139;-96
2021/08/01 04:45:52;;;;;;;8.60;4.97;;;;;;;19.24;72.34;99970.94;4955107;28;20082;-95
2021/08/01 04:48:18;;;;;;;8.90;5.47;;;;;;;19.26;72.35;99977.75;4955085;28;20430;-95
2021/08/01 04:50:43;;;;;;;8.25;6.35;;;;;;;19.29;72.60;99982.72;4954917;28;20023;-95
2021/08/01 04:53:08;;;;;;;8.02;6.03;;;;;;;19.31;72.36;99980.75;4954965;28;20086;-96
2021/08/01 04:55:34;;;;;;;7.05;5.70;;;;;;;19.34;72.76;99980.38;4954823;28;20023;-95
2021/08/01 04:58:02;;;;;;;7.43;5.60;;;;;;;19.36;71.97;99981.03;4954887;28;20151;-95
2021/08/01 05:00:27;;;;;;;6.70;4.82;;;;;;;19.40;72.55;99982.34;4954894;28;20019;-96
2021/08/01 05:02:53;;;;;;;7.68;4.45;;;;;;;19.40;71.87;99978.88;4954627;28;20120;-95
2021/08/01 05:05:18;;;;;;;5.18;4.10;;;;;;;19.41;71.83;99977.84;4954551;28;20066;-95
2021/08/01 05:07:43;;;;;;;6.25;4.95;;;;;;;19.40;72.08;99973.53;4954510;28;20492;-95
2021/08/01 05:10:09;;;;;;;5.45;4.88;;;;;;;19.44;71.97;99974.88;4954426;28;20028;-95
2021/08/01 05:12:34;;;;;;;7.45;5.05;;;;;;;19.41;72.20;99973.38;4954632;28;20023;-95
2021/08/01 05:15:00;;;;;;;8.68;5.95;;;;;;;19.44;71.76;99985.50;4954593;28;20055;-95
2021/08/01 05:17:25;;;;;;;8.27;5.80;;;;;;;19.46;71.97;99988.84;4954446;28;20470;-95
2021/08/01 05:19:51;;;;;;;9.93;6.57;;;;;;;19.47;72.36;99990.50;4954825;28;20027;-96
2021/08/01 05:22:16;;;;;;;7.82;5.32;;;;;;;19.54;71.69;99986.13;4954333;28;20027;-95
2021/08/01 05:24:42;;;;;;;9.52;6.20;;;;;;;19.58;71.90;99998.09;4953973;28;20039;-96
2021/08/01 05:27:09;;;;;;;6.20;5.43;;;;;;;19.56;72.11;99993.94;4955897;28;20035;-96
2021/08/01 05:29:35;;;;;;;6.93;5.15;;;;;;;19.61;71.40;100007.59;4954273;28;20438;-95
2021/08/01 05:32:01;;;;;;;9.35;5.28;;;;;;;19.57;71.68;100000.94;4954328;29;20031;-96
2021/08/01 05:34:26;;;;;;;11.02;5.90;;;;;;;19.60;71.67;100003.25;4953335;28;20034;-96
2021/08/01 05:36:52;;;;;;;7.72;5.28;;;;;;;19.57;71.61;99998.28;4954197;28;20169;-96
2021/08/01 05:39:17;;;;;;;8.90;4.65;;;;;;;19.64;71.89;100001.91;4954086;28;20493;-95
2021/08/01 05:41:43;;;;;;;7.22;5.50;;;;;;;19.66;71.95;100012.38;4953860;28;20125;-95
2021/08/01 05:44:08;;;;;;;6.97;5.55;;;;;;;19.66;71.76;100010.56;4953827;28;20501;-95
2021/08/01 05:46:33;;;;;;;6.28;5.50;;;;;;;19.74;71.73;100018.53;4953887;28;20117;-95
2021/08/01 05:48:59;;;;;;;8.10;5.45;;;;;;;19.71;71.46;100024.22;4953951;28;20030;-96
2021/08/01 05:51:24;;;;;;;7.43;5.40;;;;;;;19.75;71.85;100020.22;4954022;28;20023;-96
2021/08/01 05:53:50;;;;;;;6.28;5.10;;;;;;;19.83;71.71;100026.47;4953800;28;20027;-94
2021/08/01 05:56:16;;;;;;;6.60;5.05;;;;;;;19.84;71.47;100023.66;4953793;28;20038;-94
2021/08/01 05:58:42;;;;;;;9.15;5.47;;;;;;;19.86;71.17;100026.97;4953897;28;20034;-96
2021/08/01 06:01:16;;;;;;;6.72;5.22;;;;;;;20.06;71.35;100027.38;4953798;28;20054;-96
2021/08/01 06:03:42;;;;;;;6.60;4.63;;;;;;;20.01;71.33;100029.75;4953697;28;20027;-96
2021/08/01 06:06:13;;;;;;;5.32;4.75;;;;;;;20.09;71.11;100029.69;4953364;28;20031;-96
2021/08/01 06:08:43;;;;;;;6.25;4.88;;;;;;;20.15;70.59;100026.31;4953571;28;20035;-95
2021/08/01 06:11:09;;;;;;;9.23;5.32;;;;;;;20.12;71.40;100026.69;4953684;28;20031;-95
2021/08/01 06:13:35;;;;;;;6.07;4.85;;;;;;;20.23;71.21;100035.28;4953683;28;20034;-95
2021/08/01 06:16:01;;;;;;;6.55;4.53;;;;;;;20.33;71.02;100034.03;4953275;28;20034;-95
2021/08/01 06:18:26;;;;;;;8.55;5.43;;;;;;;20.43;71.53;100032.97;4953664;28;20028;-95
2021/08/01 06:21:08;;;;;;;8.82;5.18;;;;;;;20.66;70.18;100036.50;4954127;29;20030;-95
2021/08/01 06:23:34;;;;;;;7.55;5.10;;;;;;;20.55;70.74;100037.72;4953794;28;20401;-95
2021/08/01 06:26:00;;;;;;;5.68;5.07;;;;;;;20.61;70.49;100041.53;4953405;28;20034;-96
2021/08/01 06:28:25;;;;;;;8.98;6.20;;;;;;;20.59;69.66;100033.69;4953450;28;20286;-95
2021/08/01 06:30:51;;;;;;;10.80;6.43;;;;;;;20.62;69.76;100037.88;4953285;28;20019;-96
2021/08/01 06:33:16;;;;;;;5.20;4.35;;;;;;;20.71;69.73;100042.13;4953016;28;20473;-95
2021/08/01 06:35:41;;;;;;;7.65;5.32;;;;;;;20.76;69.20;100034.41;4953151;28;20061;-94
2021/08/01 06:38:07;;;;;;;4.85;4.28;;;;;;;20.79;69.18;100033.22;4953970;28;20385;-95
2021/08/01 06:40:32;;;;;;;6.75;4.93;;;;;;;20.81;68.61;100036.53;4952877;28;20179;-95
2021/08/01 06:42:57;;;;;;;8.27;4.90;;;;;;;20.99;68.41;100041.53;4952843;28;20051;-95
2021/08/01 06:45:23;;;;;;;6.03;4.63;;;;;;;21.06;68.16;100029.16;4953650;28;20544;-93
2021/08/01 06:47:48;;;;;;;9.02;4.45;;;;;;;21.19;68.56;100034.69;4956490;29;20023;-93
2021/08/01 06:50:13;;;;;;;7.03;4.80;;;;;;;21.17;67.41;100038.56;4957645;28;20073;-93
2021/08/01 06:52:39;;;;;;;5.65;4.55;;;;;;;21.10;66.81;100040.28;4957507;28;20031;-93
2021/08/01 06:55:05;;;;;;;5.55;3.70;;;;;;;21.23;67.10;100035.16;4957319;28;20573;-93
2021/08/01 06:57:30;;;;;;;5.25;3.75;;;;;;;21.10;66.48;100027.75;4956042;29;20019;-93
2021/08/01 06:59:56;;;;;;;9.52;5.22;;;;;;;21.16;67.09;100039.56;4956186;28;20505;-92
2021/08/01 07:02:21;;;;;;;11.68;5.40;;;;;;;21.20;67.23;100030.16;4957341;28;20475;-93
2021/08/01 07:04:46;;;;;;;7.45;4.88;;;;;;;21.24;66.97;100033.31;4955813;28;20050;-91
2021/08/01 07:07:12;;;;;;;10.45;5.57;;;;;;;21.25;66.93;100034.94;4957200;28;20030;-93
2021/08/01 07:09:43;;;;;;;5.90;5.25;;;;;;;21.21;67.10;100034.50;4957293;28;20111;-94
2021/08/01 07:12:08;;;;;;;6.57;5.32;;;;;;;21.15;68.38;100038.75;4955533;28;20031;-95
2021/08/01 07:14:35;;;;;;;7.03;5.03;;;;;;;21.13;67.29;100045.25;4957342;28;20107;-95
2021/08/01 07:17:01;;;;;;;5.90;4.75;;;;;;;21.10;68.29;100034.94;4956829;28;20023;-95
2021/08/01 07:19:27;;;;;;;6.28;4.82;;;;;;;21.15;68.15;100040.59;4955945;29;20027;-95
2021/08/01 07:21:52;;;;;;;8.70;5.25;;;;;;;21.18;67.88;100042.88;4955959;29;20078;-95
2021/08/01 07:24:17;;;;;;;9.23;4.65;;;;;;;21.14;67.98;100039.72;4939053;28;20036;-95
2021/08/01 07:26:43;;;;;;;8.38;4.72;;;;;;;21.12;68.10;100033.75;4945726;29;20489;-95
2021/08/01 07:29:08;;;;;;;4.65;3.92;;;;;;;21.19;68.31;100037.34;4955323;29;20090;-96
2021/08/01 07:31:34;;;;;;;4.00;3.60;;;;;;;21.42;67.58;100044.44;4955846;29;20485;-95
2021/08/01 07:34:00;;;;;;;5.70;3.70;;;;;;;21.45;67.27;100048.66;4955973;29;20020;-96
2021/08/01 07:36:27;;;;;;;6.88;3.13;;;;;;;21.31;67.31;100032.41;4955469;29;20053;-94
2021/08/01 07:38:52;;;;;;;3.63;2.88;;;;;;;21.53;68.11;100054.72;4956797;28;20033;-95
2021/08/01 07:41:17;;;;;;;3.05;2.28;;;;;;;21.43;67.34;100053.31;4955892;29;20031;-96
2021/08/01 07:43:43;;;;;;;2.47;2.28;;;;;;;21.46;67.62;100056.47;4955099;28;20118;-95
2021/08/01 07:46:08;;;;;;;3.90;2.03;;;;;;;21.52;67.69;100038.88;4955966;28;20035;-95
2021/08/01 07:48:34;;;;;;;2.50;2.22;;;;;;;21.51;66.94;100056.75;4955232;28;20038;-93
2021/08/01 07:51:00;;;;;;;3.90;2.30;;;;;;;21.68;67.03;100052.06;4956120;28;20027;-93
2021/08/01 07:53:26;;;;;;;2.35;2.15;;;;;;;21.83;67.37;100059.22;4955458;28;20166;-95
2021/08/01 07:55:52;;;;;;;2.20;2.00;;;;;;;21.98;66.60;100057.38;4954933;29;20066;-94
2021/08/01 07:58:17;;;;;;;2.70;2.10;;;;;;;22.05;67.25;100055.56;4953035;28;20332;-94
2021/08/01 08:00:43;;;;;;;2.20;2.00;;;;;;;21.98;66.22;100057.38;4957327;29;20023;-95
2021/08/01 08:03:08;;;;;;;2.35;2.10;;;;;;;22.10;65.53;100063.88;4954799;29;20410;-94
2021/08/01 08:05:33;;;;;;;2.40;1.63;;;;;;;22.09;65.31;100056.84;4953505;28;20126;-95
2021/08/01 08:07:59;;;;;;;2.15;1.58;;;;;;;22.12;64.89;100066.38;4954566;28;20070;-95
2021/08/01 08:10:24;;;;;;;1.83;1.65;;;;;;;22.13;64.77;100055.47;4954433;29;20034;-92
2021/08/01 08:12:50;;;;;;;4.25;2.05;;;;;;;21.98;65.64;100054.69;4953135;28;20019;-93
2021/08/01 08:15:16;;;;;;;1.95;1.73;;;;;;;22.05;65.62;100060.94;4955048;28;20031;-94
2021/08/01 08:17:42;;;;;;;2.33;1.75;;;;;;;22.03;64.98;100052.25;4953865;29;20015;-94
2021/08/01 08:20:08;;;;;;;4.13;2.30;;;;;;;22.05;65.84;100052.09;4954865;28;20073;-95
2021/08/01 08:22:34;;;;;;;3.17;2.70;;;;;;;22.12;65.88;100058.34;4954161;29;20023;-95
2021/08/01 08:24:59;;;;;;;4.13;2.58;;;;;;;22.30;65.73;100068.66;4955707;28;20038;-94
2021/08/01 08:27:25;;;;;;;4.45;3.30;;;;;;;22.16;64.74;100059.63;4953246;28;20499;-94
2021/08/01 08:29:50;;;;;;;7.10;3.55;;;;;;;22.42;64.79;100061.78;4952621;28;20023;-94
2021/08/01 08:32:16;;;;;;;3.38;3.00;;;;;;;22.74;63.72;100054.25;4952307;28;20375;-95
2021/08/01 08:34:41;;;;;;;4.90;3.53;;;;;;;22.94;63.61;100070.50;4955299;28;20485;-94
2021/08/01 08:37:07;;;;;;;4.55;3.42;;;;;;;23.30;62.89;100065.03;4955142;29;20034;-94
2021/08/01 08:39:32;;;;;;;5.03;2.90;;;;;;;23.59;61.49;100070.38;4954413;29;20122;-95
2021/08/01 08:41:59;;;;;;;5.18;3.38;;;;;;;23.46;61.61;100061.22;4953920;28;20030;-95
2021/08/01 08:44:26;;;;;;;3.95;2.92;;;;;;;23.81;61.14;100071.13;4953999;28;20106;-95
2021/08/01 08:46:53;;;;;;;2.92;2.50;;;;;;;24.28;60.26;100056.03;4959902;28;20030;-95
2021/08/01 08:49:20;;;;;;;2.85;2.55;;;;;;;24.40;59.41;100064.31;4957083;28;20065;-94
2021/08/01 08:51:45;;;;;;;2.78;2.28;;;;;;;24.18;58.74;100060.97;4954421;28;20118;-96
2021/08/01 08:54:29;;;;;;;3.70;2.47;;;;;;;23.98;59.78;100064.41;4954173;28;20114;-95
2021/08/01 08:56:56;;;;;;;3.13;2.80;;;;;;;24.07;59.02;100075.75;4952937;29;20110;-94
2021/08/01 08:59:22;;;;;;;3.05;2.75;;;;;;;23.61;60.11;100068.31;4955079;28;20027;-94
2021/08/01 09:01:48;;;;;;;3.38;2.88;;;;;;;23.54;60.40;100066.44;4958784;28;20109;-94
2021/08/01 09:04:15;;;;;;;5.00;3.20;;;;;;;23.60;60.40;100069.31;4950201;28;20064;-94
2021/08/01 09:06:41;;;;;;;6.75;4.22;;;;;;;23.29;60.58;100068.72;4953509;28;20023;-94
2021/08/01 09:09:06;;;;;;;4.30;3.90;;;;;;;23.17;61.14;100075.66;4951379;28;20050;-93
2021/08/01 09:11:31;;;;;;;6.35;5.18;;;;;;;23.07;61.90;100075.19;4948972;28;20078;-94
2021/08/01 09:13:58;;;;;;;6.65;4.50;;;;;;;23.14;61.71;100070.69;4949637;28;20023;-93
2021/08/01 09:16:44;;;;;;;5.68;4.80;;;;;;;23.65;59.32;100073.06;4953636;28;20390;-94
2021/08/01 09:19:49;;;;;;;6.70;5.22;;;;;;;23.15;60.75;100080.38;4947265;29;20069;-93
2021/08/01 09:22:22;;;;;;;6.30;5.05;;;;;;;22.88;62.04;100071.28;4929313;29;20390;-94
2021/08/01 09:24:50;;;;;;;5.57;4.88;;;;;;;22.61;62.35;100078.22;4943581;29;20031;-93
2021/08/01 09:27:30;;;;;;;6.60;4.85;;;;;;;22.79;61.78;100070.59;4949352;28;20031;-93
2021/08/01 09:29:55;;;;;;;9.05;5.13;;;;;;;22.67;62.40;100090.84;4954883;28;20024;-93
2021/08/01 09:32:23;;;;;;;5.47;4.75;;;;;;;22.64;62.58;100088.56;4946756;29;20035;-92
2021/08/01 09:34:49;;;;;;;4.53;4.13;;;;;;;22.72;62.37;100083.06;4954110;28;20027;-92
2021/08/01 09:37:32;;;;;;;4.35;3.95;;;;;;;22.55;63.15;100087.84;4948225;28;20119;-92
2021/08/01 09:40:10;;;;;;;3.75;3.13;;;;;;;22.68;62.67;100090.66;4949791;28;20023;-92
2021/08/01 09:42:40;;;;;;;4.00;3.60;;;;;;;22.48;64.03;100093.13;4947748;28;20494;-93
2021/08/01 09:45:16;;;;;;;4.43;3.50;;;;;;;22.27;65.06;100098.44;4950253;28;20110;-93
2021/08/01 09:47:42;;;;;;;3.10;2.80;;;;;;;22.31;63.86;100087.16;4950610;29;20026;-94
2021/08/01 09:50:08;;;;;;;3.50;3.20;;;;;;;22.23;64.27;100094.44;4953131;29;20027;-94
2021/08/01 09:52:33;;;;;;;4.28;2.97;;;;;;;22.23;64.04;100089.09;4952253;28;20471;-93
2021/08/01 09:54:58;;;;;;;2.63;2.42;;;;;;;21.94;65.57;100090.84;4951763;28;20537;-92
2021/08/01 09:57:24;;;;;;;2.50;2.30;;;;;;;21.85;65.59;100086.59;4948182;29;20536;-93
2021/08/01 10:00:05;;;;;;;2.50;2.30;;;;;;;22.41;64.24;100086.03;4947998;28;20486;-94
2021/08/01 10:02:40;;;;;;;1.93;1.73;;;;;;;22.52;64.01;100082.88;4950609;29;20027;-95
2021/08/01 10:05:20;;;;;;;2.47;2.28;;;;;;;22.53;64.58;100095.22;4950655;28;20035;-94
2021/08/01 10:07:47;;;;;;;2.85;2.65;;;;;;;22.56;64.68;100076.94;4948231;28;20044;-96
2021/08/01 10:10:24;;;;;;;2.13;2.00;;;;;;;22.68;64.36;100087.97;4961586;28;20031;-96
2021/08/01 10:12:57;;;;;;;4.68;2.50;;;;;;;22.75;64.24;100088.88;4964891;28;20039;-96
2021/08/01 10:15:24;;;;;;;2.83;2.05;;;;;;;22.89;63.73;100083.66;4968028;28;20033;-95
2021/08/01 10:17:49;;;;;;;2.60;2.30;;;;;;;23.04;63.65;100087.06;4953208;28;20106;-95
2021/08/01 10:20:14;;;;;;;3.97;2.97;;;;;;;23.09;63.78;100089.19;4956540;28;20054;-95
2021/08/01 10:22:42;;;;;;;2.13;1.92;;;;;;;23.19;62.79;100092.34;4956441;28;20082;-96
2021/08/01 10:25:17;;;;;;;2.55;1.58;;;;;;;23.24;63.07;100097.94;4951221;28;20024;-94
2021/08/01 10:27:47;;;;;;;1.58;1.45;;;;;;;23.16;61.93;100090.91;4953049;28;20031;-94
2021/08/01 10:30:20;;;;;;;2.28;1.70;;;;;;;23.25;62.50;100088.91;4952071;28;20138;-94
2021/08/01 10:32:50;;;;;;;2.30;2.10;;;;;;;23.17;62.37;100091.72;4949603;28;20496;-95
2021/08/01 10:35:21;;;;;;;1.95;1.75;;;;;;;23.42;61.59;100092.13;4953975;28;20058;-93
2021/08/01 10:37:55;;;;;;;;;;;;;;;23.41;62.35;100095.00;4970921;28;20058;-94
2021/08/01 10:40:23;;;;;;;2.55;2.10;;;;;;;23.67;62.48;100097.81;4957193;28;19942;-93
2021/08/01 10:42:59;;;;;;;2.40;2.15;;;;;;;24.44;60.21;100095.06;4954722;28;20107;-95
2021/08/01 10:45:24;;;;;;;2.17;1.98;;;;;;;24.60;60.36;100092.03;4961869;28;20481;-94
2021/08/01 10:47:51;;;;;;;1.88;1.50;;;;;;;24.76;59.39;100095.38;4953236;28;20074;-95
2021/08/01 10:50:29;;;;;;;2.28;1.75;;;;;;;24.89;57.28;100093.53;4948250;28;20500;-93
2021/08/01 10:53:29;;;;;;;2.10;1.90;;;;;;;24.71;57.51;100093.31;4955235;28;20039;-95
2021/08/01 10:56:07;;;;;;;2.72;1.70;;;;;;;24.92;57.52;100089.59;4950768;28;20031;-94
2021/08/01 10:58:37;;;;;;;1.95;1.80;;;;;;;24.86;57.61;100093.09;4960575;28;20086;-93
2021/08/01 11:01:07;;;;;;;2.75;1.90;;;;;;;24.78;57.90;100096.00;4953689;28;20508;-93
2021/08/01 11:03:34;;;;;;;2.28;1.98;;;;;;;24.84;58.10;100100.53;4954570;28;20359;-92
2021/08/01 11:06:01;;;;;;;2.30;2.03;;;;;;;24.51;59.54;100094.09;4954409;28;20038;-94
2021/08/01 11:08:27;;;;;;;3.50;2.00;;;;;;;24.30;58.60;100100.41;4952930;28;20107;-93
2021/08/01 11:11:10;;;;;;;1.40;1.10;;;;;;;24.12;59.86;100097.47;4953281;28;20109;-94
2021/08/01 11:13:46;;;;;;;2.17;1.35;;;;;;;23.91;60.11;100098.38;4952174;28;20058;-96
2021/08/01 11:16:14;;;;;;;6.85;1.55;;;;;;;23.28;61.37;100098.38;4953496;28;20482;-95
2021/08/01 11:18:44;;;;;;;1.85;1.63;;;;;;;23.33;60.95;100102.13;4952229;29;20187;-95
2021/08/01 11:21:11;;;;;;;1.60;1.20;;;;;;;22.99;62.64;100091.34;4943594;28;20031;-95
2021/08/01 11:23:46;;;;;;;1.75;1.27;;;;;;;23.09;62.23;100095.38;4952070;28;20024;-93
2021/08/01 11:26:16;;;;;;;1.90;1.70;;;;;;;22.98;64.23;100093.19;4950956;28;20131;-91
2021/08/01 11:28:44;;;;;;;1.80;1.70;;;;;;;23.00;64.07;100093.81;4951699;28;20811;-90
2021/08/01 11:31:19;;;;;;;2.10;1.90;;;;;;;22.53;64.85;100098.75;4953642;28;20035;-91
2021/08/01 11:34:08;;;;;;;3.22;2.00;;;;;;;22.66;65.26;100102.56;4957290;28;20027;-92